Time;durP1;ratioP1;P1;durP2;ratioP2;P2;SDS_P1;SDS_P2;PMS_P1;PMS_P2;Temp;Humidity;BMP_temperature;BMP_pressure;BME280_temperature;BME280_humidity;BME280_pressure;Samples;Min_cycle;Max_cycle;Signal;HPM_P1;HPM_P2
2022/05/08 00:01:05;;;;;;;7.57;6.22;;;15.40;99.90;;;;;;5096345;28;20442;-78
2022/05/08 00:03:31;;;;;;;12.00;6.35;;;15.40;99.90;;;;;;5097822;28;20023;-78
2022/05/08 00:05:59;;;;;;;11.15;6.18;;;15.40;99.90;;;;;;5096399;28;20077;-78
2022/05/08 00:08:25;;;;;;;10.82;5.43;;;15.40;99.90;;;;;;5096289;28;20020;-78
2022/05/08 00:10:50;;;;;;;10.07;6.72;;;15.40;99.90;;;;;;5098008;28;20100;-79
2022/05/08 00:13:16;;;;;;;11.80;5.90;;;15.40;99.90;;;;;;5097737;28;20444;-78
2022/05/08 00:15:42;;;;;;;12.00;5.80;;;15.50;99.90;;;;;;5089517;28;20024;-79
2022/05/08 00:18:08;;;;;;;9.68;5.25;;;15.50;99.90;;;;;;5090647;28;20020;-78
2022/05/08 00:20:34;;;;;;;9.73;6.55;;;15.60;99.90;;;;;;5096113;28;20024;-79
2022/05/08 00:23:00;;;;;;;9.77;5.85;;;15.60;99.90;;;;;;5096132;28;20139;-79
2022/05/08 00:25:27;;;;;;;9.15;5.53;;;15.60;99.90;;;;;;5097776;28;20028;-79
2022/05/08 00:27:53;;;;;;;9.07;6.18;;;15.70;99.90;;;;;;5096329;28;20047;-78
2022/05/08 00:30:19;;;;;;;7.40;5.25;;;15.70;99.90;;;;;;5097448;28;20032;-78
2022/05/08 00:32:45;;;;;;;10.10;5.90;;;15.70;99.90;;;;;;5095931;28;20028;-78
2022/05/08 00:35:11;;;;;;;12.88;6.20;;;15.70;99.90;;;;;;5097257;28;20020;-78
2022/05/08 00:37:38;;;;;;;7.03;5.78;;;15.70;99.90;;;;;;5096986;28;20043;-78
2022/05/08 00:40:04;;;;;;;7.07;5.72;;;15.70;99.90;;;;;;5097425;28;20383;-77
2022/05/08 00:42:30;;;;;;;8.85;5.55;;;15.60;99.90;;;;;;5097147;28;20027;-79
2022/05/08 00:44:56;;;;;;;17.92;7.90;;;15.60;99.90;;;;;;5096996;28;20079;-77
2022/05/08 00:47:22;;;;;;;12.55;6.60;;;15.60;99.90;;;;;;5096044;28;20028;-77
2022/05/08 00:49:49;;;;;;;10.32;5.50;;;15.60;99.90;;;;;;5095925;28;20110;-79
2022/05/08 00:52:16;;;;;;;7.95;5.32;;;15.50;99.90;;;;;;5095528;28;20024;-78
2022/05/08 00:54:43;;;;;;;9.43;5.50;;;15.50;99.90;;;;;;5096090;28;20032;-77
2022/05/08 00:57:10;;;;;;;8.50;5.82;;;15.50;99.90;;;;;;5095641;28;20020;-78
2022/05/08 00:59:36;;;;;;;7.28;4.57;;;15.50;99.90;;;;;;5097245;28;20031;-78
2022/05/08 01:02:03;;;;;;;15.75;5.60;;;15.50;99.90;;;;;;5097067;28;20034;-78
2022/05/08 01:04:30;;;;;;;10.52;4.18;;;15.50;99.90;;;;;;5096048;28;20028;-78
2022/05/08 01:06:56;;;;;;;6.45;4.25;;;15.50;99.90;;;;;;5096701;28;20027;-79
2022/05/08 01:09:22;;;;;;;8.05;4.55;;;15.50;99.90;;;;;;5097097;28;20028;-78
2022/05/08 01:11:48;;;;;;;8.88;3.97;;;15.50;99.90;;;;;;5096807;28;20028;-78
2022/05/08 01:14:14;;;;;;;8.48;3.83;;;15.50;99.90;;;;;;5096949;28;20115;-78
2022/05/08 01:16:40;;;;;;;8.10;4.63;;;15.40;99.90;;;;;;5082490;28;20044;-78
2022/05/08 01:19:06;;;;;;;5.05;3.97;;;15.40;99.90;;;;;;5097084;28;20380;-78
2022/05/08 01:21:41;;;;;;;6.90;3.90;;;15.30;99.90;;;;;;5096542;28;20484;-78
2022/05/08 01:24:08;;;;;;;9.23;4.25;;;15.30;99.90;;;;;;5097022;28;20454;-78
2022/05/08 01:26:34;;;;;;;5.55;3.47;;;15.30;99.90;;;;;;5096782;28;20024;-78
2022/05/08 01:29:03;;;;;;;4.53;3.40;;;15.20;99.90;;;;;;5096797;28;20028;-77
2022/05/08 01:31:31;;;;;;;5.32;3.88;;;15.10;99.90;;;;;;5095695;28;20050;-77
2022/05/08 01:33:57;;;;;;;4.72;3.10;;;15.10;99.90;;;;;;5095439;28;20024;-77
2022/05/08 01:36:23;;;;;;;4.57;3.25;;;15.00;99.90;;;;;;5096336;28;20043;-79
2022/05/08 01:38:50;;;;;;;5.78;3.47;;;15.00;99.90;;;;;;5096872;28;20028;-78
2022/05/08 01:41:16;;;;;;;5.18;2.92;;;15.00;99.90;;;;;;5096635;28;20020;-77
2022/05/08 01:43:42;;;;;;;4.68;3.25;;;14.90;99.90;;;;;;5096877;28;20028;-79
2022/05/08 01:46:09;;;;;;;4.47;3.20;;;14.90;99.90;;;;;;5096271;28;20080;-77
2022/05/08 01:48:34;;;;;;;5.47;3.22;;;14.80;99.90;;;;;;5096715;28;20411;-77
2022/05/08 01:51:02;;;;;;;7.95;4.32;;;14.80;99.90;;;;;;5094980;28;20028;-77
2022/05/08 01:53:34;;;;;;;4.43;3.60;;;14.70;99.90;;;;;;5095273;28;20507;-77
2022/05/08 01:56:04;;;;;;;6.40;3.80;;;14.70;99.90;;;;;;5097161;28;20032;-78
2022/05/08 01:58:31;;;;;;;6.13;4.57;;;14.70;99.90;;;;;;5098937;28;20024;-77
2022/05/08 02:00:58;;;;;;;6.45;4.45;;;14.70;99.90;;;;;;5098814;28;20115;-77
2022/05/08 02:03:24;;;;;;;7.90;4.50;;;14.70;99.90;;;;;;5100196;28;20024;-78
2022/05/08 02:05:51;;;;;;;9.00;5.50;;;14.60;99.90;;;;;;5099656;28;20103;-78
2022/05/08 02:08:18;;;;;;;9.88;5.20;;;14.50;99.90;;;;;;5098730;28;20067;-77
2022/05/08 02:10:44;;;;;;;9.55;5.60;;;14.50;99.90;;;;;;5099931;28;20107;-77
2022/05/08 02:13:11;;;;;;;13.05;6.13;;;14.50;99.90;;;;;;5100042;28;20035;-79
2022/05/08 02:15:37;;;;;;;10.82;6.05;;;14.50;99.90;;;;;;5092655;28;20044;-78
2022/05/08 02:18:05;;;;;;;10.23;6.15;;;14.50;99.90;;;;;;5093623;28;20076;-77
2022/05/08 02:20:31;;;;;;;9.10;6.15;;;14.40;99.90;;;;;;5099696;28;20583;-78
2022/05/08 02:22:57;;;;;;;10.02;6.80;;;14.40;99.90;;;;;;5098385;28;20107;-77
2022/05/08 02:25:25;;;;;;;8.32;6.63;;;14.40;99.90;;;;;;5099797;28;20383;-78
2022/05/08 02:27:51;;;;;;;9.88;7.07;;;14.30;99.90;;;;;;5099727;28;20058;-77
2022/05/08 02:30:20;;;;;;;12.18;7.38;;;14.30;99.90;;;;;;5099606;28;20031;-77
2022/05/08 02:32:46;;;;;;;7.97;6.53;;;14.30;99.90;;;;;;5099825;28;20035;-78
2022/05/08 02:35:13;;;;;;;11.68;7.35;;;14.30;99.90;;;;;;5092148;28;20028;-77
2022/05/08 02:37:40;;;;;;;11.23;7.45;;;14.30;99.90;;;;;;5093904;28;20020;-78
2022/05/08 02:40:10;;;;;;;14.23;6.80;;;14.20;99.90;;;;;;5099505;28;20031;-77
2022/05/08 02:42:38;;;;;;;15.30;7.73;;;14.20;99.90;;;;;;5099394;28;20035;-78
2022/05/08 02:45:05;;;;;;;17.60;9.38;;;14.20;99.90;;;;;;5097644;28;20075;-77
2022/05/08 02:47:33;;;;;;;10.32;7.60;;;14.20;99.90;;;;;;5099330;28;20052;-78
2022/05/08 02:49:58;;;;;;;12.98;7.78;;;14.10;99.90;;;;;;5099689;28;20389;-78
2022/05/08 02:52:24;;;;;;;13.57;7.68;;;14.10;99.90;;;;;;5097376;28;20028;-79
2022/05/08 02:54:50;;;;;;;11.63;8.82;;;14.10;99.90;;;;;;5098078;28;20035;-78
2022/05/08 03:00:05;;;;;;;20.27;8.90;;;14.10;99.90;;;;;;5099193;28;20057;-78
2022/05/08 03:02:33;;;;;;;11.77;9.18;;;14.00;99.90;;;;;;5098871;28;20046;-77
2022/05/08 03:05:00;;;;;;;12.10;9.63;;;14.00;99.90;;;;;;5099363;28;20029;-77
2022/05/08 03:07:25;;;;;;;13.63;9.10;;;14.00;99.90;;;;;;5098732;28;20044;-78
2022/05/08 03:09:51;;;;;;;20.13;10.35;;;14.00;99.90;;;;;;5097855;28;20521;-77
2022/05/08 03:12:17;;;;;;;17.10;10.05;;;13.90;99.90;;;;;;5098855;28;20429;-77
2022/05/08 03:14:43;;;;;;;12.35;9.70;;;13.90;99.90;;;;;;5098952;28;20384;-78
2022/05/08 03:17:09;;;;;;;12.93;10.48;;;13.90;99.90;;;;;;5084983;28;20122;-78
2022/05/08 03:19:35;;;;;;;18.27;10.65;;;13.90;99.90;;;;;;5098752;28;20054;-77
2022/05/08 03:22:01;;;;;;;13.75;9.65;;;13.90;99.90;;;;;;5098344;28;20450;-78
2022/05/08 03:24:31;;;;;;;12.50;9.50;;;13.90;99.90;;;;;;5098698;28;20074;-78
2022/05/08 03:26:57;;;;;;;18.48;11.07;;;13.90;99.90;;;;;;5097270;28;20026;-78
2022/05/08 03:29:26;;;;;;;14.25;10.40;;;13.80;99.90;;;;;;5098375;28;20024;-79
2022/05/08 03:31:53;;;;;;;16.13;11.82;;;13.90;99.90;;;;;;5098668;28;20107;-77
2022/05/08 03:34:19;;;;;;;19.80;11.35;;;13.80;99.90;;;;;;5098253;28;20081;-78
2022/05/08 03:36:45;;;;;;;15.65;10.15;;;13.80;99.90;;;;;;5098255;28;20149;-78
2022/05/08 03:39:13;;;;;;;22.27;10.20;;;13.90;99.90;;;;;;5096789;28;20062;-77
2022/05/08 03:41:39;;;;;;;17.85;11.43;;;13.80;99.90;;;;;;5096999;28;20023;-79
2022/05/08 03:44:06;;;;;;;17.58;10.88;;;13.80;99.90;;;;;;5098061;28;20024;-78
2022/05/08 03:46:32;;;;;;;17.95;10.73;;;13.90;99.90;;;;;;5098034;28;20664;-78
2022/05/08 03:48:58;;;;;;;17.65;10.75;;;13.80;99.90;;;;;;5083454;28;20088;-79
2022/05/08 03:51:24;;;;;;;14.77;11.30;;;13.90;99.90;;;;;;5076346;28;20020;-78
2022/05/08 03:53:50;;;;;;;18.90;11.27;;;13.90;99.90;;;;;;5079455;28;20481;-77
2022/05/08 03:56:16;;;;;;;20.65;11.77;;;13.90;99.90;;;;;;5078111;28;20047;-78
2022/05/08 03:58:42;;;;;;;16.05;10.88;;;13.80;99.90;;;;;;5078472;28;20019;-78
2022/05/08 04:01:09;;;;;;;21.30;12.18;;;13.70;99.90;;;;;;5078361;28;20020;-77
2022/05/08 04:03:35;;;;;;;21.58;11.75;;;13.70;99.90;;;;;;5079042;28;20021;-77
2022/05/08 04:06:04;;;;;;;13.93;11.60;;;13.70;99.90;;;;;;5080340;28;20016;-78
2022/05/08 04:08:32;;;;;;;25.98;12.02;;;13.60;99.90;;;;;;5062527;28;20107;-77
2022/05/08 04:10:57;;;;;;;19.48;12.20;;;13.50;99.90;;;;;;5057365;28;20027;-78
2022/05/08 04:13:23;;;;;;;18.98;12.77;;;13.60;99.90;;;;;;5076534;28;20088;-78
2022/05/08 04:18:33;;;;;;;15.88;10.68;;;13.50;99.90;;;;;;5064407;28;20502;-77
2022/05/08 04:20:59;;;;;;;20.75;12.63;;;13.50;99.90;;;;;;5076767;28;20100;-77
2022/05/08 04:26:09;;;;;;;19.30;11.45;;;13.40;99.90;;;;;;5057860;28;20032;-76
2022/05/08 04:28:35;;;;;;;20.48;13.15;;;13.40;99.90;;;;;;5060536;28;20033;-76
2022/05/08 04:31:01;;;;;;;22.63;11.45;;;13.40;99.90;;;;;;5059858;28;20039;-77
2022/05/08 04:33:27;;;;;;;21.50;12.75;;;13.30;99.90;;;;;;5066056;28;20035;-78
2022/05/08 04:35:53;;;;;;;16.42;11.90;;;13.30;99.90;;;;;;5055699;28;20477;-77
2022/05/08 04:38:18;;;;;;;25.15;13.73;;;13.40;99.90;;;;;;5058202;28;20025;-78
2022/05/08 04:40:44;;;;;;;16.10;12.00;;;13.30;99.90;;;;;;5058295;28;20014;-78
2022/05/08 04:43:10;;;;;;;23.75;15.05;;;13.30;99.90;;;;;;5069238;28;20040;-77
2022/05/08 04:45:36;;;;;;;21.30;13.02;;;13.20;99.90;;;;;;5079018;28;20048;-77
2022/05/08 04:48:02;;;;;;;23.35;13.68;;;13.30;99.90;;;;;;5077038;28;20391;-77
2022/05/08 04:50:28;;;;;;;17.08;11.35;;;13.30;99.90;;;;;;5075885;28;20044;-77
2022/05/08 04:52:54;;;;;;;20.23;13.43;;;13.30;99.90;;;;;;5079374;28;20029;-76
2022/05/08 04:55:20;;;;;;;20.48;12.77;;;13.30;99.90;;;;;;5077021;28;20029;-77
2022/05/08 04:57:46;;;;;;;19.33;12.80;;;13.30;99.90;;;;;;5088525;28;20024;-77
2022/05/08 05:00:12;;;;;;;19.13;14.15;;;13.30;99.90;;;;;;5095237;28;20024;-80
2022/05/08 05:02:38;;;;;;;17.35;12.35;;;13.30;99.90;;;;;;5097023;28;20016;-79
2022/05/08 05:05:06;;;;;;;18.52;14.18;;;13.30;99.90;;;;;;5089507;28;20488;-79
2022/05/08 05:07:32;;;;;;;16.75;13.20;;;13.30;99.90;;;;;;5096061;28;20024;-78
2022/05/08 05:09:57;;;;;;;20.92;13.25;;;13.30;99.90;;;;;;5095735;28;20078;-77
2022/05/08 05:12:23;;;;;;;18.45;13.73;;;13.30;99.90;;;;;;5091300;28;20028;-78
2022/05/08 05:14:49;;;;;;;20.02;13.15;;;13.30;99.90;;;;;;5076481;28;20032;-78
2022/05/08 05:17:15;;;;;;;16.75;12.10;;;13.30;99.90;;;;;;5082724;28;20480;-79
2022/05/08 05:19:41;;;;;;;31.25;13.93;;;13.40;99.90;;;;;;5095548;28;20016;-78
2022/05/08 05:22:06;;;;;;;21.33;13.25;;;13.40;99.90;;;;;;5096982;28;20089;-79
2022/05/08 05:24:32;;;;;;;19.05;13.07;;;13.50;99.90;;;;;;5096980;28;20020;-79
2022/05/08 05:27:00;;;;;;;19.42;13.63;;;13.50;99.90;;;;;;5088157;28;20108;-78
2022/05/08 05:29:25;;;;;;;18.45;13.13;;;13.50;99.90;;;;;;5076079;28;20017;-78
2022/05/08 05:31:51;;;;;;;24.80;13.13;;;13.50;99.90;;;;;;5081684;28;20047;-79
2022/05/08 05:34:17;;;;;;;22.63;12.95;;;13.50;99.90;;;;;;5081224;28;20024;-79
2022/05/08 05:36:43;;;;;;;24.13;12.48;;;13.60;99.90;;;;;;5082835;28;20101;-78
2022/05/08 05:39:09;;;;;;;20.52;12.55;;;13.60;99.90;;;;;;5078244;28;20024;-79
2022/05/08 05:41:34;;;;;;;19.08;11.82;;;13.60;99.90;;;;;;5079589;28;20388;-80
2022/05/08 05:44:00;;;;;;;19.42;13.13;;;13.70;99.90;;;;;;5080812;28;20020;-79
2022/05/08 05:49:10;;;;;;;18.67;13.30;;;13.80;99.90;;;;;;5082368;28;20026;-79
2022/05/08 05:51:36;;;;;;;19.42;11.05;;;13.80;99.90;;;;;;5087802;28;20115;-78
2022/05/08 05:54:02;;;;;;;21.98;12.25;;;13.90;99.90;;;;;;5100095;28;20020;-81
2022/05/08 05:56:28;;;;;;;19.40;12.77;;;13.90;99.90;;;;;;5098692;28;20028;-79
2022/05/08 05:58:53;;;;;;;22.60;12.68;;;14.00;99.90;;;;;;5099965;28;20430;-79
2022/05/08 06:01:19;;;;;;;19.75;11.95;;;14.00;99.90;;;;;;5100244;28;20099;-79
2022/05/08 06:03:45;;;;;;;21.52;12.57;;;14.10;99.90;;;;;;5090909;28;20549;-79
2022/05/08 06:06:12;;;;;;;21.48;12.35;;;14.10;99.90;;;;;;5084798;28;20035;-79
2022/05/08 06:08:38;;;;;;;15.98;11.82;;;14.20;99.90;;;;;;5082627;28;20071;-79
2022/05/08 06:11:04;;;;;;;16.33;10.80;;;14.20;99.90;;;;;;5088048;28;20028;-79
2022/05/08 06:13:30;;;;;;;15.43;12.02;;;14.30;99.90;;;;;;5098520;28;20107;-78
2022/05/08 06:15:56;;;;;;;17.58;10.57;;;14.30;99.90;;;;;;5088510;28;20149;-79
2022/05/08 06:18:22;;;;;;;16.00;11.15;;;14.40;99.90;;;;;;5096267;28;20514;-78
2022/05/08 06:20:48;;;;;;;15.05;10.98;;;14.50;99.90;;;;;;5099701;28;20392;-80
2022/05/08 06:23:14;;;;;;;20.10;12.25;;;14.50;99.90;;;;;;5099767;28;20380;-79
2022/05/08 06:25:41;;;;;;;18.63;10.45;;;14.50;99.90;;;;;;5098568;28;20028;-79
2022/05/08 06:28:08;;;;;;;17.75;10.07;;;14.60;99.90;;;;;;5099665;28;20052;-79
2022/05/08 06:30:35;;;;;;;20.42;10.35;;;14.60;99.90;;;;;;5098230;28;20036;-79
2022/05/08 06:33:00;;;;;;;15.52;10.18;;;14.70;99.90;;;;;;5099502;28;20420;-80
2022/05/08 06:35:26;;;;;;;16.25;11.15;;;14.80;99.90;;;;;;5099283;28;20055;-79
2022/05/08 06:37:54;;;;;;;19.63;10.23;;;14.90;99.90;;;;;;5099509;28;20027;-79
2022/05/08 06:40:21;;;;;;;20.98;9.77;;;15.00;99.90;;;;;;5094968;28;20101;-78
2022/05/08 06:42:47;;;;;;;15.43;9.60;;;15.00;99.90;;;;;;5097705;28;20012;-79
2022/05/08 06:45:13;;;;;;;12.20;9.55;;;15.10;99.90;;;;;;5097798;28;20131;-79
2022/05/08 06:47:40;;;;;;;13.35;9.18;;;15.10;99.90;;;;;;5088813;28;20023;-78
2022/05/08 06:50:06;;;;;;;15.07;9.23;;;15.20;99.90;;;;;;5083481;28;20032;-79
2022/05/08 06:52:32;;;;;;;12.32;7.72;;;15.30;99.90;;;;;;5092482;28;20434;-79
2022/05/08 06:54:58;;;;;;;14.07;10.05;;;15.40;99.90;;;;;;5078904;28;20052;-79
2022/05/08 06:57:24;;;;;;;15.63;9.85;;;15.40;99.90;;;;;;5097030;28;20074;-79
2022/05/08 07:02:41;;;;;;;17.65;8.90;;;15.60;99.90;;;;;;5099104;28;20028;-78
2022/05/08 07:05:08;;;;;;;14.07;9.27;;;15.60;99.90;;;;;;5091366;28;20028;-80
2022/05/08 07:07:34;;;;;;;16.83;9.65;;;15.60;99.90;;;;;;5075069;28;20063;-79
2022/05/08 07:10:00;;;;;;;14.98;8.55;;;15.70;99.90;;;;;;5068558;28;20025;-79
2022/05/08 07:12:26;;;;;;;12.23;8.82;;;15.70;99.90;;;;;;5098963;28;20488;-79
2022/05/08 07:14:54;;;;;;;12.93;9.02;;;15.80;99.90;;;;;;5097325;28;20035;-79
2022/05/08 07:17:21;;;;;;;15.55;8.15;;;15.90;99.90;;;;;;5085436;28;20016;-79
2022/05/08 07:19:48;;;;;;;12.57;8.38;;;15.90;99.90;;;;;;5097589;28;20020;-79
2022/05/08 07:22:17;;;;;;;9.85;7.47;;;16.00;99.90;;;;;;5081387;28;20021;-79
2022/05/08 07:24:43;;;;;;;11.50;8.02;;;16.10;99.90;;;;;;5080234;28;20021;-78
2022/05/08 07:27:11;;;;;;;10.45;7.15;;;16.30;99.90;;;;;;5077767;28;20017;-79
2022/05/08 07:29:44;;;;;;;9.45;7.80;;;16.40;99.90;;;;;;5079281;28;20025;-79
2022/05/08 07:32:10;;;;;;;8.98;6.90;;;16.40;99.90;;;;;;5098580;28;20031;-77
2022/05/08 07:37:20;;;;;;;12.45;8.10;;;16.50;99.90;;;;;;5098295;28;20059;-79
2022/05/08 07:39:46;;;;;;;9.45;7.53;;;16.60;99.90;;;;;;5096919;28;20024;-78
2022/05/08 07:42:12;;;;;;;10.77;7.60;;;16.70;99.90;;;;;;5098443;28;20032;-78
2022/05/08 07:44:38;;;;;;;14.80;7.85;;;16.80;99.90;;;;;;5097944;28;20452;-79
2022/05/08 07:47:04;;;;;;;14.88;8.10;;;16.80;99.90;;;;;;5097215;28;20020;-79
2022/05/08 07:49:29;;;;;;;11.52;7.88;;;16.90;99.90;;;;;;5098108;28;20505;-79
2022/05/08 07:51:55;;;;;;;14.05;7.10;;;16.90;99.90;;;;;;5072107;28;20016;-79
2022/05/08 07:54:21;;;;;;;11.75;7.20;;;17.00;99.90;;;;;;5072549;28;20029;-79
2022/05/08 07:56:47;;;;;;;10.10;6.28;;;17.20;99.90;;;;;;5066337;28;20021;-79
2022/05/08 07:59:13;;;;;;;10.73;6.82;;;17.20;99.90;;;;;;5075342;28;20477;-79
2022/05/08 08:01:38;;;;;;;11.02;6.28;;;17.20;99.90;;;;;;5081136;28;20020;-79
2022/05/08 08:04:05;;;;;;;9.18;6.63;;;17.30;99.90;;;;;;5076113;28;20106;-78
2022/05/08 08:06:32;;;;;;;27.10;6.30;;;17.20;99.90;;;;;;5090376;28;20637;-77
2022/05/08 08:08:58;;;;;;;14.43;6.47;;;17.40;99.90;;;;;;5097727;28;20032;-78
2022/05/08 08:11:25;;;;;;;8.93;6.38;;;17.40;99.90;;;;;;5097734;28;20024;-79
2022/05/08 08:13:50;;;;;;;11.63;7.47;;;17.50;99.90;;;;;;5096502;28;20492;-78
2022/05/08 08:16:17;;;;;;;8.73;6.63;;;17.50;99.90;;;;;;5083397;28;20097;-78
2022/05/08 08:18:44;;;;;;;10.88;6.72;;;17.50;99.90;;;;;;5096784;28;20024;-78
2022/05/08 08:21:14;;;;;;;10.30;6.25;;;17.70;99.90;;;;;;5097682;28;20474;-78
2022/05/08 08:23:41;;;;;;;;;;;17.80;99.90;;;;;;5095519;28;20016;-78
2022/05/08 08:26:09;;;;;;;8.02;5.68;;;17.80;99.90;;;;;;5070709;28;20364;-78
2022/05/08 08:28:35;;;;;;;23.73;7.20;;;17.90;99.90;;;;;;5084350;28;20035;-79
2022/05/08 08:31:01;;;;;;;13.63;6.30;;;18.00;99.90;;;;;;5097191;28;20031;-78
2022/05/08 08:33:27;;;;;;;12.48;5.93;;;18.00;99.90;;;;;;5097443;28;20036;-79
2022/05/08 08:35:56;;;;;;;9.23;5.88;;;18.00;99.90;;;;;;5096957;28;20492;-78
2022/05/08 08:38:21;;;;;;;19.00;7.13;;;18.10;99.90;;;;;;5096035;28;20081;-78
2022/05/08 08:40:49;;;;;;;9.65;5.63;;;18.10;99.90;;;;;;5095799;28;20024;-78
2022/05/08 08:43:19;;;;;;;8.60;7.03;;;18.20;99.90;;;;;;5095912;28;20488;-78
2022/05/08 08:48:32;;;;;;;10.77;6.00;;;18.20;99.90;;;;;;5083833;28;20044;-77
2022/05/08 08:51:00;;;;;;;16.55;7.43;;;18.40;99.90;;;;;;5094128;28;20028;-78
2022/05/08 08:53:27;;;;;;;10.27;6.53;;;18.40;99.90;;;;;;5097347;28;20387;-77
2022/05/08 08:55:54;;;;;;;8.85;5.80;;;18.40;99.90;;;;;;5097003;28;20028;-76
2022/05/08 08:58:20;;;;;;;9.10;6.78;;;18.50;99.90;;;;;;5097509;28;20031;-76
2022/05/08 09:00:48;;;;;;;13.20;6.78;;;18.60;99.90;;;;;;5095602;28;20055;-76
2022/05/08 09:03:25;;;;;;;11.13;7.70;;;18.60;99.90;;;;;;5094416;28;20024;-76
2022/05/08 09:05:55;;;;;;;7.90;6.15;;;18.70;99.90;;;;;;5091853;28;20038;-76
2022/05/08 09:08:37;;;;;;;11.85;6.32;;;18.60;99.90;;;;;;5101108;28;20031;-77
2022/05/08 09:11:03;;;;;;;8.15;6.22;;;18.70;99.90;;;;;;5088605;28;20048;-76
2022/05/08 09:13:30;;;;;;;11.32;5.97;;;18.90;99.90;;;;;;5091177;28;20104;-77
2022/05/08 09:16:07;;;;;;;12.98;7.20;;;18.80;99.90;;;;;;5077571;28;20036;-77
2022/05/08 09:18:48;;;;;;;9.93;6.25;;;18.70;99.90;;;;;;5082636;28;20044;-78
2022/05/08 09:24:11;;;;;;;15.18;7.43;;;18.80;99.90;;;;;;5079130;28;20047;-76
2022/05/08 09:26:36;;;;;;;9.80;6.05;;;18.80;99.90;;;;;;5081825;28;20025;-76
2022/05/08 09:29:03;;;;;;;12.90;5.93;;;18.80;99.90;;;;;;5081250;28;20090;-76
2022/05/08 09:31:42;;;;;;;10.05;6.03;;;18.80;99.90;;;;;;5079557;28;20052;-77
2022/05/08 09:34:09;;;;;;;13.80;7.53;;;18.70;99.90;;;;;;5081479;28;20024;-78
2022/05/08 09:36:35;;;;;;;12.75;7.43;;;18.80;99.90;;;;;;5083792;28;20021;-78
2022/05/08 09:39:02;;;;;;;11.30;7.63;;;18.90;99.90;;;;;;5079506;28;20025;-77
2022/05/08 09:41:39;;;;;;;10.68;7.70;;;18.90;99.90;;;;;;5080632;28;20433;-80
2022/05/08 09:44:13;;;;;;;11.43;7.63;;;19.00;99.90;;;;;;5093820;28;20487;-79
2022/05/08 09:46:43;;;;;;;8.82;6.70;;;19.20;99.90;;;;;;5099198;28;20044;-79
2022/05/08 09:49:21;;;;;;;14.07;8.25;;;19.20;99.90;;;;;;5099004;28;20113;-79
2022/05/08 09:51:48;;;;;;;13.13;8.13;;;19.30;99.90;;;;;;5100129;28;20024;-78
2022/05/08 09:54:16;;;;;;;9.35;7.13;;;19.30;99.90;;;;;;5100100;28;20016;-77
2022/05/08 09:56:44;;;;;;;14.70;8.32;;;19.40;99.90;;;;;;5098890;28;20032;-79
2022/05/08 09:59:11;;;;;;;8.73;7.18;;;19.40;99.90;;;;;;5098780;28;20023;-80
2022/05/08 10:01:43;;;;;;;9.85;7.55;;;19.50;99.90;;;;;;5090424;28;20032;-79
2022/05/08 10:04:09;;;;;;;9.13;5.78;;;19.50;99.90;;;;;;5086728;28;20028;-79
2022/05/08 10:06:37;;;;;;;12.85;6.63;;;19.40;99.90;;;;;;5100026;28;20052;-79
2022/05/08 10:14:35;;;;;;;11.23;5.57;;;19.50;99.90;;;;;;5092428;28;20055;-79
2022/05/08 10:17:01;;;;;;;15.05;6.90;;;19.50;99.90;;;;;;5077204;28;20423;-79
2022/05/08 10:19:27;;;;;;;8.48;5.70;;;19.60;99.90;;;;;;5079369;28;20027;-79
2022/05/08 10:21:55;;;;;;;9.50;5.85;;;19.60;99.90;;;;;;5078649;28;20103;-81
2022/05/08 10:24:38;;;;;;;8.98;6.60;;;19.70;99.90;;;;;;5078150;28;20464;-78
2022/05/08 10:27:25;;;;;;;18.17;6.65;;;19.80;99.90;;;;;;5078099;28;20061;-80
2022/05/08 10:29:51;;;;;;;10.48;5.50;;;19.80;99.90;;;;;;5082981;28;20020;-80
2022/05/08 10:32:32;;;;;;;11.23;5.82;;;19.90;99.90;;;;;;5078554;28;21678;-79
2022/05/08 10:35:14;;;;;;;8.25;5.60;;;19.90;99.90;;;;;;5076135;28;20039;-79
2022/05/08 10:37:51;;;;;;;6.95;4.97;;;20.00;99.90;;;;;;5081358;28;20066;-78
2022/05/08 10:40:23;;;;;;;7.90;4.95;;;20.10;99.90;;;;;;5087749;28;20028;-81
2022/05/08 10:42:56;;;;;;;8.65;4.43;;;20.00;99.90;;;;;;5098057;28;20055;-78
2022/05/08 10:45:31;;;;;;;12.10;4.85;;;20.10;99.90;;;;;;5088166;28;20140;-78
2022/05/08 10:48:04;;;;;;;10.20;5.35;;;20.40;99.90;;;;;;5082483;28;20501;-78
2022/05/08 10:50:30;;;;;;;9.02;5.75;;;20.50;99.90;;;;;;5079958;28;20112;-81
2022/05/08 10:52:58;;;;;;;11.45;5.25;;;20.60;99.90;;;;;;5077688;28;20031;-83
2022/05/08 10:55:25;;;;;;;7.40;5.10;;;20.50;99.90;;;;;;5080257;28;20481;-80
2022/05/08 10:57:52;;;;;;;8.40;5.45;;;20.40;99.90;;;;;;5090828;28;20030;-82
2022/05/08 11:00:31;;;;;;;9.30;4.65;;;20.30;99.90;;;;;;5098877;28;20031;-81
2022/05/08 11:03:01;;;;;;;6.28;4.03;;;20.40;99.90;;;;;;5097898;28;20385;-79
2022/05/08 11:05:38;;;;;;;6.50;4.97;;;20.60;99.90;;;;;;5080951;28;20021;-80
2022/05/08 11:08:10;;;;;;;9.43;4.25;;;20.70;99.90;;;;;;5091409;28;20034;-82
2022/05/08 11:10:43;;;;;;;11.98;4.63;;;20.70;99.90;;;;;;5098874;28;20039;-79
2022/05/08 11:13:17;;;;;;;10.05;4.00;;;20.70;99.90;;;;;;5097353;28;20085;-80
2022/05/08 11:15:45;;;;;;;12.88;4.55;;;20.70;99.90;;;;;;5076791;28;20119;-80
2022/05/08 11:18:14;;;;;;;7.60;4.43;;;20.70;99.90;;;;;;5093429;28;20028;-79
2022/05/08 11:20:45;;;;;;;7.45;5.03;;;20.90;99.90;;;;;;5098319;28;20073;-80
2022/05/08 11:23:12;;;;;;;11.45;4.63;;;21.10;99.90;;;;;;5098638;28;20016;-80
2022/05/08 11:25:39;;;;;;;8.98;4.38;;;21.20;99.90;;;;;;5097798;28;20058;-79
2022/05/08 11:28:05;;;;;;;6.20;4.45;;;21.30;99.90;;;;;;5097334;28;20031;-79
2022/05/08 11:30:33;;;;;;;5.93;4.05;;;21.40;99.90;;;;;;5098372;28;20036;-79
2022/05/08 11:36:05;;;;;;;8.02;4.60;;;21.20;99.90;;;;;;5079026;28;20074;-80
2022/05/08 11:38:58;;;;;;;10.32;4.80;;;21.10;99.90;;;;;;5075976;28;20017;-79
2022/05/08 11:41:28;;;;;;;10.00;5.05;;;21.20;99.90;;;;;;5069730;28;20381;-81
2022/05/08 11:43:56;;;;;;;8.55;4.25;;;21.40;99.90;;;;;;5076599;28;20020;-80
2022/05/08 11:46:36;;;;;;;7.15;4.50;;;21.60;99.90;;;;;;5079568;28;20051;-78
2022/05/08 11:49:13;;;;;;;6.95;4.22;;;21.70;99.90;;;;;;5080851;28;20027;-81
2022/05/08 11:51:45;;;;;;;7.40;4.25;;;21.60;99.90;;;;;;5075217;28;20476;-78
2022/05/08 11:54:25;;;;;;;5.68;3.60;;;21.50;99.90;;;;;;5078307;28;20043;-79
2022/05/08 11:57:10;;;;;;;7.88;3.95;;;21.70;99.90;;;;;;5076802;28;20024;-80
2022/05/08 11:59:37;;;;;;;8.38;3.90;;;21.90;99.90;;;;;;5076603;28;20019;-77
2022/05/08 12:02:03;;;;;;;7.72;3.67;;;21.90;99.90;;;;;;5081093;28;20114;-79
2022/05/08 12:04:35;;;;;;;8.90;3.65;;;22.10;99.90;;;;;;5076906;28;20487;-78
2022/05/08 12:07:08;;;;;;;6.05;3.35;;;22.10;99.90;;;;;;5078840;28;20500;-78
2022/05/08 12:09:49;;;;;;;5.38;3.42;;;22.10;99.90;;;;;;5077045;28;20048;-78
2022/05/08 12:12:35;;;;;;;;;;;22.20;99.90;;;;;;5081545;28;20031;-77
2022/05/08 12:15:07;;;;;;;8.43;3.25;;;22.40;99.90;;;;;;5078429;28;19983;-79
2022/05/08 12:17:45;;;;;;;7.65;3.13;;;22.40;99.90;;;;;;5077773;28;20013;-80
2022/05/08 12:20:15;;;;;;;4.95;3.20;;;22.30;99.90;;;;;;5077869;28;20024;-78
2022/05/08 12:22:44;;;;;;;5.35;3.50;;;22.40;99.90;;;;;;5077312;28;20038;-80
2022/05/08 12:25:12;;;;;;;10.90;3.83;;;22.70;99.90;;;;;;5079047;28;20496;-77
2022/05/08 12:27:39;;;;;;;5.30;3.33;;;22.70;99.90;;;;;;5075988;28;20020;-80
2022/05/08 12:30:07;;;;;;;10.25;3.40;;;22.60;99.90;;;;;;5078908;28;20035;-76
2022/05/08 12:32:37;;;;;;;4.07;2.83;;;22.70;99.90;;;;;;5078297;28;20062;-79
2022/05/08 12:35:04;;;;;;;5.65;3.10;;;22.80;99.70;;;;;;5078845;28;20059;-78
2022/05/08 12:37:29;;;;;;;6.05;2.63;;;23.00;98.40;;;;;;5075189;28;20032;-77
2022/05/08 12:39:55;;;;;;;4.05;3.03;;;22.90;96.40;;;;;;5076390;28;20020;-76
2022/05/08 12:42:21;;;;;;;5.13;2.83;;;23.10;96.60;;;;;;5075993;28;20017;-76
2022/05/08 12:44:47;;;;;;;7.13;3.63;;;23.30;98.00;;;;;;5069536;28;20144;-76
2022/05/08 12:47:14;;;;;;;6.75;3.30;;;23.60;97.60;;;;;;5076841;28;20025;-76
2022/05/08 12:49:42;;;;;;;5.65;2.72;;;23.60;96.30;;;;;;5078441;28;20013;-76
2022/05/08 12:52:09;;;;;;;3.28;2.20;;;23.30;96.80;;;;;;5076745;28;20047;-76
2022/05/08 12:54:36;;;;;;;4.82;2.10;;;23.30;94.60;;;;;;5083932;28;20028;-78
2022/05/08 12:57:04;;;;;;;3.92;2.50;;;23.40;93.30;;;;;;5093500;28;20059;-76
2022/05/08 12:59:49;;;;;;;5.93;2.47;;;23.40;92.30;;;;;;5097125;28;20072;-76
2022/05/08 13:02:18;;;;;;;7.38;2.70;;;23.50;93.10;;;;;;5081010;28;20019;-76
2022/05/08 13:04:45;;;;;;;3.70;2.63;;;23.60;94.00;;;;;;5086995;28;20099;-77
2022/05/08 13:07:12;;;;;;;4.63;2.45;;;23.60;94.40;;;;;;5092292;28;20058;-77
2022/05/08 13:09:38;;;;;;;5.47;3.00;;;23.60;94.80;;;;;;5085507;28;20035;-78
2022/05/08 13:12:06;;;;;;;5.07;2.80;;;23.60;95.00;;;;;;5092858;28;20020;-78